Time;durP1;ratioP1;P1;durP2;ratioP2;P2;SDS_P1;SDS_P2;PMS_P1;PMS_P2;Temp;Humidity;BMP_temperature;BMP_pressure;BME280_temperature;BME280_humidity;BME280_pressure;Samples;Min_cycle;Max_cycle;Signal;HPM_P1;HPM_P2
2022/10/11 07:43:09;;;;;;;3.63;1.30;;;19.40;70.70;;;;;;5086978;28;20838;-61
2022/10/11 07:45:38;;;;;;;4.15;1.42;;;19.40;70.30;;;;;;5085277;28;20033;-61
2022/10/11 07:48:07;;;;;;;4.57;1.40;;;19.40;70.00;;;;;;5082655;28;20078;-61
2022/10/11 07:50:36;;;;;;;5.10;1.60;;;19.40;69.90;;;;;;5065383;28;20575;-61
2022/10/11 07:53:04;;;;;;;4.57;1.35;;;19.40;69.90;;;;;;5066991;28;20021;-61
2022/10/11 07:55:41;;;;;;;5.10;1.50;;;19.40;69.70;;;;;;5075004;28;20020;-61
2022/10/11 07:58:13;;;;;;;6.50;1.35;;;19.40;69.70;;;;;;5086851;28;20066;-61
2022/10/11 08:00:41;;;;;;;8.05;1.90;;;19.40;69.80;;;;;;5086240;28;20169;-60
2022/10/11 08:03:10;;;;;;;4.70;1.30;;;19.40;70.00;;;;;;5085549;28;20689;-58
2022/10/11 08:05:39;;;;;;;3.45;1.40;;;19.40;70.50;;;;;;5084653;28;20111;-58
2022/10/11 08:08:06;;;;;;;6.55;1.85;;;19.40;70.60;;;;;;5074778;28;20057;-61
2022/10/11 08:10:39;;;;;;;4.88;1.50;;;19.40;70.90;;;;;;5066453;28;20329;-65
2022/10/11 08:13:08;;;;;;;4.80;1.50;;;19.40;71.00;;;;;;5080621;28;20039;-60
2022/10/11 08:15:36;;;;;;;5.22;1.52;;;19.40;71.10;;;;;;5068186;28;20025;-60
2022/10/11 08:18:04;;;;;;;5.75;1.77;;;19.40;71.20;;;;;;5086583;28;20032;-65
2022/10/11 08:20:32;;;;;;;6.70;2.28;;;19.50;71.20;;;;;;5084830;28;20020;-66
2022/10/11 08:23:01;;;;;;;12.93;3.80;;;19.50;70.80;;;;;;5073170;28;20041;-60
2022/10/11 08:25:29;;;;;;;13.60;5.47;;;19.50;71.00;;;;;;5083664;28;20108;-61
2022/10/11 08:27:57;;;;;;;8.55;3.95;;;19.50;71.10;;;;;;5076914;28;20471;-59
2022/10/11 08:30:25;;;;;;;8.00;3.00;;;19.50;71.50;;;;;;5075121;28;20016;-59
2022/10/11 08:32:53;;;;;;;7.07;2.97;;;19.50;71.20;;;;;;5086539;28;20050;-59
2022/10/11 08:35:21;;;;;;;6.93;2.58;;;19.50;71.50;;;;;;5085083;28;20081;-58
2022/10/11 08:37:50;;;;;;;6.63;2.35;;;19.50;71.80;;;;;;5086603;28;20198;-62
2022/10/11 08:40:20;;;;;;;7.07;2.03;;;19.60;72.10;;;;;;5086575;28;20616;-60
2022/10/11 08:43:00;;;;;;;6.28;1.80;;;19.60;71.50;;;;;;5086224;28;20447;-60
2022/10/11 08:45:38;;;;;;;6.75;2.00;;;19.60;72.10;;;;;;5084267;28;20120;-61
2022/10/11 08:48:12;;;;;;;5.20;1.83;;;19.60;71.60;;;;;;5084989;28;20024;-60
2022/10/11 08:50:43;;;;;;;5.25;1.80;;;19.60;71.90;;;;;;5069022;28;20435;-62
2022/10/11 08:53:21;;;;;;;5.60;1.80;;;19.60;71.90;;;;;;5056756;28;20032;-58
2022/10/11 08:55:52;;;;;;;5.18;1.73;;;19.60;71.80;;;;;;5052960;28;20036;-62
2022/10/11 08:58:43;;;;;;;5.07;1.58;;;19.60;72.10;;;;;;5051270;28;20549;-65
2022/10/11 09:01:20;;;;;;;5.63;1.95;;;19.60;72.50;;;;;;5061073;28;20044;-64
2022/10/11 09:03:49;;;;;;;5.00;1.70;;;19.60;72.80;;;;;;5071606;28;20116;-63
2022/10/11 09:06:20;;;;;;;9.05;2.35;;;19.60;73.00;;;;;;5071864;28;20032;-63
2022/10/11 09:08:58;;;;;;;5.95;1.75;;;19.60;73.20;;;;;;5071521;28;20020;-62
2022/10/11 09:11:53;;;;;;;9.05;2.05;;;19.60;73.20;;;;;;5070631;28;20597;-63
2022/10/11 09:14:43;;;;;;;6.43;1.98;;;19.60;72.90;;;;;;5070340;28;20132;-62
2022/10/11 09:17:29;;;;;;;5.22;1.98;;;19.60;72.90;;;;;;5072262;28;20042;-62
2022/10/11 09:20:13;;;;;;;5.32;1.90;;;19.60;73.30;;;;;;5067871;28;20114;-62
2022/10/11 09:22:42;;;;;;;5.93;1.95;;;19.60;73.20;;;;;;5050794;28;20071;-63
2022/10/11 09:25:36;;;;;;;5.15;1.70;;;19.60;73.20;;;;;;5051824;28;20720;-63
2022/10/11 09:28:31;;;;;;;7.22;1.92;;;19.60;73.30;;;;;;5050540;28;20044;-63
2022/10/11 09:31:00;;;;;;;8.93;1.90;;;19.60;73.40;;;;;;5051056;28;20028;-63
2022/10/11 09:33:43;;;;;;;6.70;1.90;;;19.60;73.40;;;;;;5050313;28;20018;-63
2022/10/11 09:36:41;;;;;;;6.18;1.83;;;19.60;73.40;;;;;;5051994;28;20044;-60
2022/10/11 09:39:35;;;;;;;6.28;2.20;;;19.50;73.50;;;;;;5057040;28;20266;-63
2022/10/11 09:42:10;;;;;;;5.70;1.65;;;19.50;73.40;;;;;;5059615;28;20491;-62
2022/10/11 09:44:44;;;;;;;9.38;1.70;;;19.50;73.50;;;;;;5066111;28;20029;-62
2022/10/11 09:47:24;;;;;;;9.00;2.00;;;19.50;73.60;;;;;;5065117;28;20030;-70
2022/10/11 09:50:05;;;;;;;7.10;1.85;;;19.50;74.10;;;;;;5064846;28;20112;-62
2022/10/11 09:52:34;;;;;;;7.27;1.50;;;19.50;74.20;;;;;;5064927;28;20021;-60
2022/10/11 09:55:03;;;;;;;10.18;2.00;;;19.50;74.20;;;;;;5062887;28;20098;-58
2022/10/11 09:57:38;;;;;;;6.72;1.75;;;19.50;74.40;;;;;;5069863;28;20035;-59
2022/10/11 10:00:24;;;;;;;6.20;1.77;;;19.50;74.50;;;;;;5071233;28;20027;-62
2022/10/11 10:02:58;;;;;;;6.40;1.70;;;19.60;75.00;;;;;;5059284;28;20093;-63
2022/10/11 10:05:29;;;;;;;9.13;2.10;;;19.60;75.00;;;;;;5070987;28;20047;-65
2022/10/11 10:08:21;;;;;;;7.93;1.80;;;19.60;75.20;;;;;;5051604;28;20029;-62
2022/10/11 10:11:10;;;;;;;9.65;2.55;;;19.60;74.90;;;;;;5072277;28;20113;-64
2022/10/11 10:13:57;;;;;;;8.10;1.67;;;19.60;74.70;;;;;;5070200;28;20029;-63
2022/10/11 10:16:32;;;;;;;9.98;2.22;;;19.60;74.90;;;;;;5071236;28;20020;-61
2022/10/11 10:19:06;;;;;;;5.07;1.33;;;19.60;75.20;;;;;;5051505;28;20025;-62
2022/10/11 10:21:49;;;;;;;7.70;1.80;;;19.60;74.70;;;;;;5058204;28;20040;-63
2022/10/11 10:24:39;;;;;;;10.05;1.92;;;19.60;74.80;;;;;;5062894;28;20031;-64
2022/10/11 10:27:15;;;;;;;6.03;2.00;;;19.60;74.90;;;;;;5051186;28;20033;-63
2022/10/11 10:30:01;;;;;;;6.82;1.90;;;19.60;74.90;;;;;;5068044;28;20542;-63
2022/10/11 10:32:56;;;;;;;6.82;1.60;;;19.50;75.00;;;;;;5069296;28;20036;-62
2022/10/11 10:35:44;;;;;;;8.88;1.88;;;19.50;75.20;;;;;;5051106;28;20025;-62
2022/10/11 10:38:15;;;;;;;7.20;1.75;;;19.50;75.50;;;;;;5062291;28;20025;-62
2022/10/11 10:40:56;;;;;;;10.35;2.05;;;19.60;75.60;;;;;;5069724;28;20021;-63
2022/10/11 10:43:28;;;;;;;10.77;1.67;;;19.50;75.70;;;;;;5070968;28;20031;-63
2022/10/11 10:46:11;;;;;;;7.80;1.83;;;19.50;76.10;;;;;;5069408;28;20480;-63
2022/10/11 10:48:52;;;;;;;11.10;1.95;;;19.50;76.10;;;;;;5049796;28;20247;-63
2022/10/11 10:51:44;;;;;;;6.40;1.85;;;19.50;76.10;;;;;;5058111;28;20028;-63
2022/10/11 10:54:32;;;;;;;;;;;19.50;76.00;;;;;;5071145;28;20021;-63
2022/10/11 10:57:25;;;;;;;9.25;1.70;;;19.50;76.00;;;;;;5066921;28;20333;-63
2022/10/11 11:00:06;;;;;;;10.02;1.90;;;19.50;76.00;;;;;;5052345;28;20025;-63
2022/10/11 11:03:02;;;;;;;5.47;2.10;;;19.50;76.00;;;;;;5070661;28;20037;-63
2022/10/11 11:06:00;;;;;;;10.70;1.98;;;19.50;76.30;;;;;;5059407;28;20036;-62
2022/10/11 11:08:44;;;;;;;14.40;1.67;;;19.50;76.20;;;;;;5050734;28;20166;-62
2022/10/11 11:11:36;;;;;;;9.60;2.40;;;19.50;76.10;;;;;;5050683;28;20523;-62
2022/10/11 11:14:20;;;;;;;;;;;19.50;76.10;;;;;;5057392;28;20040;-63
2022/10/11 11:17:04;;;;;;;7.07;1.92;;;19.50;76.10;;;;;;5053419;28;20046;-63
2022/10/11 11:19:54;;;;;;;6.05;1.60;;;19.50;76.10;;;;;;5070526;28;20028;-63
2022/10/11 11:22:37;;;;;;;6.03;1.58;;;19.50;76.30;;;;;;5069832;28;20166;-63
2022/10/11 11:25:21;;;;;;;5.63;1.70;;;19.40;76.30;;;;;;5052585;28;20028;-63
2022/10/11 11:27:58;;;;;;;6.45;1.50;;;19.40;76.30;;;;;;5069013;28;20095;-63
2022/10/11 11:30:36;;;;;;;5.15;1.48;;;19.50;76.40;;;;;;5068266;28;20094;-62
2022/10/11 11:33:35;;;;;;;6.93;1.75;;;19.50;76.60;;;;;;5069267;28;20025;-59
2022/10/11 11:36:10;;;;;;;6.40;1.58;;;19.40;76.50;;;;;;5069235;28;20020;-64
2022/10/11 11:38:39;;;;;;;5.45;1.63;;;19.40;76.40;;;;;;5069938;28;20121;-59
2022/10/11 11:41:23;;;;;;;7.47;1.50;;;19.50;76.40;;;;;;5070114;28;20076;-65
2022/10/11 11:44:09;;;;;;;6.68;1.58;;;19.50;76.70;;;;;;5070203;28;20021;-66
2022/10/11 11:47:48;;;;;;;6.70;1.50;;;19.50;76.60;;;;;;5069134;28;20599;-67
2022/10/11 11:50:23;;;;;;;6.20;1.67;;;19.50;76.60;;;;;;4939511;28;20035;-65
2022/10/11 11:52:58;;;;;;;9.05;2.35;;;19.50;76.50;;;;;;5057848;28;20518;-64
2022/10/11 11:55:48;;;;;;;5.85;1.80;;;19.50;76.50;;;;;;5069130;28;20029;-64
2022/10/11 11:58:55;;;;;;;3.70;1.23;;;19.50;76.50;;;;;;5070462;28;20055;-65
2022/10/11 12:01:49;;;;;;;4.78;1.45;;;19.50;76.60;;;;;;5051646;28;20025;-65
2022/10/11 12:04:35;;;;;;;6.70;1.52;;;19.50;76.70;;;;;;5070819;28;20036;-66
2022/10/11 12:07:11;;;;;;;5.45;1.20;;;19.50;76.70;;;;;;5068590;28;20032;-65
2022/10/11 12:09:43;;;;;;;4.28;1.10;;;19.50;76.70;;;;;;5048801;28;20037;-66
2022/10/11 12:12:35;;;;;;;8.93;1.58;;;19.50;76.80;;;;;;5048842;28;20021;-65
2022/10/11 12:15:15;;;;;;;4.73;1.40;;;19.50;76.80;;;;;;5064339;28;20025;-66
2022/10/11 12:17:56;;;;;;;6.82;1.42;;;19.50;76.90;;;;;;5068470;28;20436;-65
2022/10/11 12:20:39;;;;;;;5.57;1.23;;;19.50;76.90;;;;;;5069902;28;20035;-65
2022/10/11 12:23:29;;;;;;;5.07;1.33;;;19.50;77.00;;;;;;5068822;28;20036;-65
2022/10/11 12:26:27;;;;;;;5.20;1.33;;;19.50;77.00;;;;;;5063327;28;20040;-64
2022/10/11 12:29:04;;;;;;;7.10;1.20;;;19.50;77.00;;;;;;5047918;28;20037;-65
2022/10/11 12:31:35;;;;;;;4.75;1.25;;;19.50;76.90;;;;;;5053766;28;20025;-65
2022/10/11 12:34:16;;;;;;;6.35;1.40;;;19.40;76.80;;;;;;5065532;28;20427;-65
2022/10/11 12:36:48;;;;;;;5.88;1.38;;;19.50;76.90;;;;;;5073998;28;20025;-64
2022/10/11 12:39:19;;;;;;;4.55;1.20;;;19.40;76.80;;;;;;5073979;28;20027;-64
2022/10/11 12:41:49;;;;;;;5.00;1.17;;;19.50;76.70;;;;;;5071976;28;20067;-63
2022/10/11 12:44:28;;;;;;;8.43;1.55;;;19.40;76.70;;;;;;5055118;28;20100;-65
2022/10/11 12:47:01;;;;;;;4.18;1.20;;;19.50;76.80;;;;;;5054359;28;20086;-66
2022/10/11 12:49:48;;;;;;;6.80;1.30;;;19.40;76.60;;;;;;5057438;28;20040;-65
2022/10/11 12:52:16;;;;;;;5.35;1.65;;;19.40;76.70;;;;;;5062407;28;20086;-64
2022/10/11 12:54:54;;;;;;;5.65;1.35;;;19.50;76.80;;;;;;5057588;28;20056;-65
2022/10/11 12:58:11;;;;;;;6.68;1.50;;;19.50;76.90;;;;;;5051544;28;20116;-66
2022/10/11 13:00:51;;;;;;;6.50;1.40;;;19.50;76.90;;;;;;5041613;28;20098;-67
2022/10/11 13:03:49;;;;;;;5.15;1.10;;;19.50;76.90;;;;;;5070420;28;20056;-66
2022/10/11 13:06:23;;;;;;;4.28;1.30;;;19.50;76.80;;;;;;5047716;28;20056;-67
2022/10/11 13:09:04;;;;;;;5.95;1.40;;;19.50;76.80;;;;;;5060567;28;20024;-66
2022/10/11 13:11:39;;;;;;;3.20;1.05;;;19.60;76.80;;;;;;5068907;28;20024;-67
2022/10/11 13:14:16;;;;;;;3.55;1.20;;;19.50;76.70;;;;;;5071477;28;20067;-66
2022/10/11 13:17:02;;;;;;;4.45;1.30;;;19.50;76.70;;;;;;5073316;28;20059;-68
2022/10/11 13:19:34;;;;;;;7.25;1.30;;;19.60;77.40;;;;;;5068751;28;20107;-68
2022/10/11 13:22:14;;;;;;;5.00;1.67;;;19.60;76.80;;;;;;5053710;28;20169;-66
2022/10/11 13:24:43;;;;;;;4.55;1.10;;;19.60;76.80;;;;;;5054038;28;20185;-66
2022/10/11 13:27:21;;;;;;;4.85;1.10;;;19.50;76.70;;;;;;5054700;28;20032;-67
2022/10/11 13:29:53;;;;;;;5.30;1.50;;;19.50;76.70;;;;;;5054309;28;20024;-67
2022/10/11 13:32:25;;;;;;;5.25;1.30;;;19.50;76.70;;;;;;5071407;28;20024;-68
2022/10/11 13:34:58;;;;;;;4.30;1.50;;;19.50;76.70;;;;;;5071266;28;20032;-66
2022/10/11 13:37:28;;;;;;;6.85;1.13;;;19.50;76.70;;;;;;5070045;28;20121;-66
2022/10/11 13:39:57;;;;;;;4.47;1.38;;;19.50;76.70;;;;;;5054419;28;20107;-67
2022/10/11 13:42:31;;;;;;;6.45;1.30;;;19.50;76.70;;;;;;5071940;28;20040;-67
2022/10/11 13:45:00;;;;;;;4.88;1.27;;;19.50;76.70;;;;;;5060463;28;20475;-68
2022/10/11 13:47:31;;;;;;;7.47;1.60;;;19.50;76.70;;;;;;5050988;28;20115;-68
2022/10/11 13:50:10;;;;;;;5.18;1.38;;;19.50;76.70;;;;;;5052238;28;20021;-67
2022/10/11 13:52:54;;;;;;;6.75;1.67;;;19.50;76.70;;;;;;5052364;28;20029;-66
2022/10/11 13:55:35;;;;;;;8.85;1.52;;;19.50;76.70;;;;;;5034315;28;20048;-67
2022/10/11 13:58:10;;;;;;;7.53;1.42;;;19.50;76.80;;;;;;5060570;28;20052;-68
2022/10/11 14:00:51;;;;;;;6.43;1.67;;;19.50;76.80;;;;;;5065571;28;20083;-68
2022/10/11 14:03:21;;;;;;;6.70;1.52;;;19.50;76.90;;;;;;5052293;28;20061;-65
2022/10/11 14:05:56;;;;;;;6.38;1.77;;;19.50;76.80;;;;;;5051945;28;20021;-65
2022/10/11 14:08:42;;;;;;;4.63;1.63;;;19.50;76.80;;;;;;5065068;28;20424;-68
2022/10/11 14:11:13;;;;;;;10.02;1.73;;;19.50;76.80;;;;;;5069603;28;20028;-68
2022/10/11 14:13:49;;;;;;;7.25;1.38;;;19.60;76.80;;;;;;5071308;28;20054;-68
2022/10/11 14:16:20;;;;;;;6.15;1.52;;;19.50;76.70;;;;;;5071819;28;20035;-68
2022/10/11 14:19:08;;;;;;;5.28;1.40;;;19.50;76.80;;;;;;5071973;28;20090;-67
2022/10/11 14:21:46;;;;;;;6.38;1.50;;;19.60;76.70;;;;;;5060032;28;20041;-67
2022/10/11 14:24:16;;;;;;;6.68;1.48;;;19.50;76.70;;;;;;5069944;28;20039;-66
2022/10/11 14:26:50;;;;;;;5.03;1.45;;;19.60;76.70;;;;;;5053972;28;20568;-66
2022/10/11 14:29:27;;;;;;;7.47;1.42;;;19.60;76.70;;;;;;5069697;28;20529;-68
2022/10/11 14:32:06;;;;;;;5.10;1.63;;;19.50;76.70;;;;;;5069285;28;20566;-67
2022/10/11 14:34:36;;;;;;;5.40;1.40;;;19.50;76.70;;;;;;5052659;28;20028;-67
2022/10/11 14:37:04;;;;;;;5.25;1.27;;;19.50;76.70;;;;;;5049972;28;20522;-68
2022/10/11 14:39:33;;;;;;;4.45;1.33;;;19.50;76.70;;;;;;5049915;28;20136;-68
2022/10/11 14:42:01;;;;;;;9.23;1.75;;;19.50;76.80;;;;;;5049583;28;20048;-67
2022/10/11 14:44:30;;;;;;;5.43;1.30;;;19.50;76.80;;;;;;5049266;28;20106;-67
2022/10/11 14:46:58;;;;;;;5.47;1.55;;;19.50;76.80;;;;;;5054151;28;20482;-67
2022/10/11 14:49:29;;;;;;;4.88;1.42;;;19.50;77.10;;;;;;5042264;28;20479;-66
2022/10/11 14:51:58;;;;;;;4.65;1.17;;;19.50;76.80;;;;;;5054518;28;20046;-67
2022/10/11 14:54:29;;;;;;;7.53;1.42;;;19.50;76.80;;;;;;5052690;28;20032;-68
2022/10/11 14:57:00;;;;;;;6.18;1.30;;;19.50;76.80;;;;;;5052863;28;20050;-68
2022/10/11 14:59:35;;;;;;;3.65;1.25;;;19.50;76.90;;;;;;5051689;28;20024;-68
2022/10/11 15:02:06;;;;;;;5.05;1.20;;;19.50;76.90;;;;;;5052931;28;20045;-68
2022/10/11 15:04:36;;;;;;;6.57;1.30;;;19.50;76.90;;;;;;5069445;28;20366;-68
2022/10/11 15:07:04;;;;;;;7.00;1.85;;;19.50;76.90;;;;;;5049064;28;20120;-68
2022/10/11 15:09:33;;;;;;;5.00;1.40;;;19.50;76.90;;;;;;5059380;28;20016;-67
2022/10/11 15:12:01;;;;;;;5.35;1.58;;;19.50;76.80;;;;;;5069178;28;20056;-69
2022/10/11 15:14:29;;;;;;;4.72;1.40;;;19.50;76.80;;;;;;5068770;28;20024;-68
2022/10/11 15:16:57;;;;;;;4.50;1.10;;;19.50;76.80;;;;;;5069263;28;20020;-67
2022/10/11 15:19:26;;;;;;;7.00;1.58;;;19.50;76.70;;;;;;5061506;28;20021;-67
2022/10/11 15:21:54;;;;;;;5.22;1.48;;;19.50;76.70;;;;;;5056725;28;20128;-67
2022/10/11 15:24:22;;;;;;;5.78;1.50;;;19.50;76.70;;;;;;5048879;28;20055;-67
2022/10/11 15:26:50;;;;;;;6.53;1.40;;;19.50;76.70;;;;;;5052476;28;20024;-67
2022/10/11 15:29:21;;;;;;;5.38;1.40;;;19.50;76.70;;;;;;5067874;28;20028;-66
2022/10/11 15:31:49;;;;;;;5.47;1.55;;;19.50;76.80;;;;;;5052569;28;20551;-67
2022/10/11 15:34:17;;;;;;;4.97;1.23;;;19.50;77.40;;;;;;5070774;28;20032;-68
2022/10/11 15:36:48;;;;;;;6.53;1.40;;;19.50;76.80;;;;;;5070729;28;20025;-68
2022/10/11 15:39:26;;;;;;;4.40;1.30;;;19.50;76.90;;;;;;5058597;28;20013;-67
2022/10/11 15:41:56;;;;;;;4.53;1.50;;;19.50;76.90;;;;;;5057208;28;20470;-66
2022/10/11 15:44:25;;;;;;;4.65;1.50;;;19.50;76.80;;;;;;5049797;28;20555;-67
2022/10/11 15:46:53;;;;;;;4.70;1.27;;;19.40;76.80;;;;;;5049001;28;20032;-66
2022/10/11 15:49:21;;;;;;;6.80;1.60;;;19.40;76.80;;;;;;5047258;28;20495;-67
2022/10/11 15:51:50;;;;;;;4.88;1.80;;;19.50;76.90;;;;;;5068958;28;20075;-68
2022/10/11 15:54:18;;;;;;;5.88;1.30;;;19.40;76.80;;;;;;5067977;28;20027;-68
2022/10/11 15:56:47;;;;;;;4.10;1.30;;;19.40;76.90;;;;;;5049087;28;20144;-68
2022/10/11 15:59:15;;;;;;;7.35;1.30;;;19.40;76.90;;;;;;5050311;28;20020;-68
2022/10/11 16:01:43;;;;;;;6.18;1.45;;;19.40;76.90;;;;;;5065380;28;20039;-66
2022/10/11 16:04:11;;;;;;;5.03;1.50;;;19.40;76.80;;;;;;5052991;28;20036;-65
2022/10/11 16:06:40;;;;;;;4.80;1.40;;;19.40;76.90;;;;;;5052651;28;20064;-68
2022/10/11 16:09:08;;;;;;;6.63;1.42;;;19.40;76.80;;;;;;5064246;28;20028;-68
2022/10/11 16:11:37;;;;;;;5.93;1.50;;;19.40;76.90;;;;;;5054041;28;20028;-67
2022/10/11 16:14:05;;;;;;;8.02;1.63;;;19.40;76.90;;;;;;5053484;28;20616;-66
2022/10/11 16:16:33;;;;;;;7.97;1.60;;;19.40;76.90;;;;;;5053657;28;20025;-66
2022/10/11 16:19:01;;;;;;;4.82;1.48;;;19.40;76.90;;;;;;5052311;28;20025;-67
2022/10/11 16:21:30;;;;;;;6.40;1.50;;;19.40;76.80;;;;;;5069546;28;20064;-67
2022/10/11 16:23:58;;;;;;;5.47;1.67;;;19.40;76.90;;;;;;5055928;28;20361;-66
2022/10/11 16:26:26;;;;;;;4.68;1.70;;;19.40;76.90;;;;;;5072004;28;20399;-66
2022/10/11 16:28:55;;;;;;;6.47;1.67;;;19.30;76.80;;;;;;5071628;28;20023;-66
2022/10/11 16:31:24;;;;;;;5.65;1.70;;;19.40;76.90;;;;;;5071186;28;20028;-69
2022/10/11 16:33:52;;;;;;;4.97;1.63;;;19.30;76.90;;;;;;5072262;28;20479;-68
2022/10/11 16:36:35;;;;;;;5.82;1.50;;;19.30;76.90;;;;;;5055824;28;20078;-65
2022/10/11 16:39:11;;;;;;;5.43;1.77;;;19.30;77.00;;;;;;5065097;28;20032;-65
2022/10/11 16:41:40;;;;;;;5.75;1.60;;;19.30;77.00;;;;;;5052798;28;20045;-66
2022/10/11 16:44:16;;;;;;;5.55;1.88;;;19.30;77.00;;;;;;5072962;28;20039;-66
2022/10/11 16:46:47;;;;;;;8.75;1.70;;;19.30;77.00;;;;;;5072088;28;20029;-66
2022/10/11 16:49:18;;;;;;;6.28;1.52;;;19.30;77.00;;;;;;5073929;28;20021;-66
2022/10/11 16:51:47;;;;;;;5.55;1.98;;;19.30;77.00;;;;;;5042352;28;20032;-68
2022/10/11 16:54:15;;;;;;;5.22;1.65;;;19.30;77.00;;;;;;5061413;28;20036;-67
2022/10/11 16:56:45;;;;;;;6.25;1.77;;;19.30;77.00;;;;;;5071822;28;20036;-66
2022/10/11 16:59:13;;;;;;;9.98;2.08;;;19.20;77.00;;;;;;5071254;28;20024;-66
2022/10/11 17:01:42;;;;;;;7.40;1.88;;;19.30;77.00;;;;;;5051428;28;20064;-66
2022/10/11 17:04:10;;;;;;;5.55;1.90;;;19.30;77.10;;;;;;5052911;28;20017;-67
2022/10/11 17:06:39;;;;;;;9.25;1.95;;;19.30;77.10;;;;;;5051494;28;20037;-67
2022/10/11 17:09:07;;;;;;;5.72;1.70;;;19.30;77.10;;;;;;5051814;28;20025;-67
2022/10/11 17:11:36;;;;;;;4.03;1.60;;;19.30;77.10;;;;;;5051763;28;20060;-66
2022/10/11 17:14:05;;;;;;;6.97;1.70;;;19.30;77.10;;;;;;5050684;28;20021;-67
2022/10/11 17:16:34;;;;;;;6.63;1.70;;;19.30;77.00;;;;;;5053097;28;20098;-67
2022/10/11 17:19:03;;;;;;;5.13;2.10;;;19.30;77.00;;;;;;5054488;28;20112;-67
2022/10/11 17:21:32;;;;;;;6.13;1.65;;;19.30;76.90;;;;;;5053169;28;20057;-67
2022/10/11 17:24:00;;;;;;;7.90;1.85;;;19.30;76.90;;;;;;5063387;28;20020;-67
2022/10/11 17:26:29;;;;;;;4.97;1.70;;;19.30;77.50;;;;;;5071152;28;20112;-67
2022/10/11 17:28:59;;;;;;;6.88;1.75;;;19.30;76.90;;;;;;5072710;28;20017;-67
2022/10/11 17:31:29;;;;;;;4.45;1.65;;;19.30;77.50;;;;;;5070592;28;20608;-66
2022/10/11 17:34:00;;;;;;;6.25;1.60;;;19.40;76.90;;;;;;5034631;28;20037;-67
2022/10/11 17:36:35;;;;;;;4.95;1.50;;;19.30;76.80;;;;;;5052360;28;20101;-67
2022/10/11 17:39:08;;;;;;;5.88;1.80;;;19.40;76.90;;;;;;5065927;28;20029;-69
2022/10/11 17:41:37;;;;;;;6.80;1.80;;;19.40;76.90;;;;;;5054013;28;20080;-69
2022/10/11 17:44:05;;;;;;;5.47;1.63;;;19.40;76.80;;;;;;5071965;28;20047;-68
2022/10/11 17:46:34;;;;;;;6.57;1.67;;;19.30;76.80;;;;;;5070888;28;20047;-68
2022/10/11 17:49:04;;;;;;;5.50;1.90;;;19.30;76.80;;;;;;5071379;28;20056;-68
2022/10/11 17:51:35;;;;;;;5.47;1.92;;;19.40;76.90;;;;;;5050862;28;20021;-67
2022/10/11 17:54:05;;;;;;;6.43;1.90;;;19.30;76.90;;;;;;5067836;28;20108;-66
2022/10/11 17:56:33;;;;;;;4.70;1.45;;;19.30;77.00;;;;;;5072099;28;20135;-69
2022/10/11 17:59:01;;;;;;;5.20;1.63;;;19.30;77.10;;;;;;5071728;28;20051;-68
2022/10/11 18:01:30;;;;;;;6.50;2.00;;;19.30;77.10;;;;;;5071933;28;20043;-68
2022/10/11 18:04:03;;;;;;;4.00;1.50;;;19.30;77.20;;;;;;5061345;28;20017;-68
2022/10/11 18:06:37;;;;;;;6.38;1.85;;;19.30;77.20;;;;;;5051986;28;20029;-67
2022/10/11 18:09:06;;;;;;;5.18;1.70;;;19.30;77.20;;;;;;5070971;28;20020;-67
2022/10/11 18:11:34;;;;;;;5.25;1.52;;;19.40;77.40;;;;;;5070954;28;20464;-66
2022/10/11 18:14:04;;;;;;;4.00;1.50;;;19.40;77.40;;;;;;5053547;28;20040;-66
2022/10/11 18:16:33;;;;;;;4.75;1.40;;;19.40;77.40;;;;;;5053901;28;20097;-66
2022/10/11 18:19:03;;;;;;;5.47;2.13;;;19.40;77.40;;;;;;5068363;28;20474;-67
2022/10/11 18:21:33;;;;;;;6.35;1.67;;;19.40;77.30;;;;;;5070748;28;20047;-67
2022/10/11 18:24:10;;;;;;;5.22;1.50;;;19.40;77.30;;;;;;5051553;28;20051;-66
2022/10/11 18:26:39;;;;;;;4.80;1.80;;;19.40;77.30;;;;;;5049300;28;20048;-66
2022/10/11 18:29:08;;;;;;;4.95;1.50;;;19.40;77.30;;;;;;5049884;28;20116;-67
2022/10/11 18:31:36;;;;;;;5.53;1.60;;;19.40;77.30;;;;;;5051436;28;20029;-66
2022/10/11 18:34:07;;;;;;;4.43;1.50;;;19.40;77.30;;;;;;5051409;28;20120;-67
2022/10/11 18:36:36;;;;;;;4.25;1.40;;;19.40;77.40;;;;;;5050371;28;20032;-67
2022/10/11 18:39:07;;;;;;;6.40;1.58;;;19.40;77.40;;;;;;5067634;28;20371;-67
2022/10/11 18:41:37;;;;;;;6.53;1.90;;;19.40;77.40;;;;;;5070888;28;20043;-66
2022/10/11 18:44:07;;;;;;;5.00;1.92;;;19.40;77.30;;;;;;5069445;28;20036;-66
2022/10/11 18:46:36;;;;;;;7.90;1.58;;;19.40;77.30;;;;;;5070193;28;20025;-67
2022/10/11 18:49:04;;;;;;;4.45;1.83;;;19.40;77.30;;;;;;5054397;28;20032;-66
2022/10/11 18:51:35;;;;;;;4.78;1.60;;;19.40;77.30;;;;;;5055922;28;20032;-67
2022/10/11 18:54:06;;;;;;;5.93;1.70;;;19.40;77.30;;;;;;5069527;28;20024;-68
2022/10/11 18:56:35;;;;;;;5.68;1.65;;;19.40;77.40;;;;;;5066464;28;20317;-67
2022/10/11 18:59:04;;;;;;;7.03;2.28;;;19.30;77.30;;;;;;5070542;28;20424;-69
2022/10/11 19:01:40;;;;;;;5.05;1.77;;;19.40;77.40;;;;;;5070859;28;20036;-68
2022/10/11 19:04:10;;;;;;;5.32;1.77;;;19.30;77.40;;;;;;5070738;28;20023;-67
2022/10/11 19:06:41;;;;;;;6.50;1.67;;;19.30;77.40;;;;;;5067543;28;20688;-67
2022/10/11 19:09:22;;;;;;;4.95;1.67;;;19.40;77.50;;;;;;5070829;28;20024;-66
2022/10/11 19:11:52;;;;;;;8.00;1.73;;;19.40;77.50;;;;;;5052949;28;20032;-66
2022/10/11 19:14:24;;;;;;;3.85;1.65;;;19.40;77.50;;;;;;5070409;28;20024;-67
2022/10/11 19:16:54;;;;;;;7.03;1.90;;;19.30;77.50;;;;;;5069795;28;20475;-67
2022/10/11 19:19:25;;;;;;;4.85;1.55;;;19.40;77.50;;;;;;5070450;28;20070;-68
2022/10/11 19:21:54;;;;;;;5.20;1.60;;;19.30;77.40;;;;;;5058211;28;20032;-67
2022/10/11 19:24:23;;;;;;;5.35;1.60;;;19.40;77.50;;;;;;5050513;28;20079;-68
2022/10/11 19:26:52;;;;;;;7.40;1.92;;;19.30;77.40;;;;;;5065451;28;20323;-66
2022/10/11 19:29:22;;;;;;;6.60;2.25;;;19.30;77.40;;;;;;5069903;28;20013;-65
2022/10/11 19:31:55;;;;;;;7.18;2.35;;;19.30;77.40;;;;;;5070429;28;20056;-68
2022/10/11 19:34:26;;;;;;;6.88;1.90;;;19.30;77.50;;;;;;5070355;28;20398;-67
2022/10/11 19:36:56;;;;;;;6.47;1.70;;;19.20;77.50;;;;;;5054878;28;20056;-68
2022/10/11 19:39:24;;;;;;;4.90;1.70;;;19.30;77.60;;;;;;5050273;28;20373;-67
2022/10/11 19:41:53;;;;;;;7.75;1.95;;;19.30;77.70;;;;;;5049661;28;20044;-67
2022/10/11 19:44:21;;;;;;;7.07;2.17;;;19.30;77.70;;;;;;5048339;28;20120;-65
2022/10/11 19:46:49;;;;;;;4.68;1.80;;;19.30;77.80;;;;;;5062459;28;20025;-66
2022/10/11 19:49:20;;;;;;;5.43;2.00;;;19.30;77.90;;;;;;5070708;28;20028;-67
2022/10/11 19:51:48;;;;;;;5.22;1.80;;;19.20;77.90;;;;;;5060440;28;20085;-67
2022/10/11 19:54:17;;;;;;;6.20;1.80;;;19.20;78.00;;;;;;5056386;28;20060;-69
2022/10/11 19:56:46;;;;;;;6.90;2.10;;;19.20;78.00;;;;;;5050948;28;20495;-69
2022/10/11 19:59:14;;;;;;;6.95;2.00;;;19.20;78.10;;;;;;5048192;28;20090;-67
2022/10/11 20:01:43;;;;;;;7.80;2.10;;;19.20;78.10;;;;;;5064034;28;20032;-67
2022/10/11 20:04:12;;;;;;;8.75;2.22;;;19.20;78.20;;;;;;5063001;28;20028;-67
2022/10/11 20:06:42;;;;;;;5.43;2.25;;;19.20;78.20;;;;;;5049544;28;20047;-66
2022/10/11 20:09:11;;;;;;;5.07;2.10;;;19.20;78.30;;;;;;5051963;28;20025;-64
2022/10/11 20:11:39;;;;;;;6.63;2.00;;;19.20;78.40;;;;;;5050451;28;20449;-70
2022/10/11 20:14:07;;;;;;;8.45;2.00;;;19.30;79.00;;;;;;5060929;28;20115;-70
2022/10/11 20:16:36;;;;;;;5.32;1.90;;;19.30;79.50;;;;;;5048950;28;20033;-70
2022/10/11 20:19:05;;;;;;;10.13;2.97;;;19.30;79.10;;;;;;5035714;28;20134;-65
2022/10/11 20:21:33;;;;;;;7.28;2.47;;;19.30;79.00;;;;;;5048000;28;20037;-60
2022/10/11 20:24:03;;;;;;;8.40;2.20;;;19.40;79.70;;;;;;5051040;28;20112;-66
2022/10/11 20:26:33;;;;;;;7.15;2.00;;;19.40;80.20;;;;;;5073573;28;20025;-68
2022/10/11 20:29:02;;;;;;;9.57;1.80;;;19.40;79.60;;;;;;5051443;28;20090;-71
2022/10/11 20:31:32;;;;;;;8.15;2.38;;;19.40;79.30;;;;;;5089994;28;20024;-63
2022/10/11 20:34:05;;;;;;;6.18;2.50;;;19.40;79.70;;;;;;5086088;28;20034;-64
2022/10/11 20:36:35;;;;;;;7.35;2.20;;;19.40;79.60;;;;;;5069756;28;20169;-65
2022/10/11 20:39:05;;;;;;;10.48;1.98;;;19.50;79.90;;;;;;5063426;28;20017;-64
2022/10/11 20:41:38;;;;;;;6.95;2.03;;;19.50;79.60;;;;;;5049378;28;20048;-64
2022/10/11 20:44:08;;;;;;;6.35;1.85;;;19.50;79.30;;;;;;5062478;28;20074;-64
2022/10/11 20:46:38;;;;;;;5.72;2.00;;;19.50;79.20;;;;;;5067905;28;20094;-63
2022/10/11 20:49:10;;;;;;;7.35;2.17;;;19.50;79.20;;;;;;5070314;28;20016;-62
2022/10/11 20:51:40;;;;;;;8.02;2.42;;;19.50;79.30;;;;;;5059294;28;20509;-63
2022/10/11 20:54:09;;;;;;;11.50;2.40;;;19.50;79.30;;;;;;5062748;28;20019;-65
2022/10/11 20:56:38;;;;;;;9.48;2.28;;;19.50;79.40;;;;;;5070830;28;20181;-63
2022/10/11 20:59:07;;;;;;;11.63;3.28;;;19.50;79.30;;;;;;5072405;28;20439;-64
2022/10/11 21:01:38;;;;;;;9.05;2.92;;;19.50;79.30;;;;;;5073133;28;20150;-64
2022/10/11 21:04:09;;;;;;;13.90;3.00;;;19.50;79.20;;;;;;5069120;28;20116;-63
2022/10/11 21:06:38;;;;;;;6.93;2.58;;;19.50;79.20;;;;;;5062597;28;20032;-64